createdAt,value
2018-07-05T00:00:38.441Z,15.70
2018-07-05T00:03:24.211Z,15.80
2018-07-05T00:06:04.843Z,15.80
2018-07-05T00:08:45.128Z,15.70
2018-07-05T00:11:30.316Z,15.70
2018-07-05T00:14:15.247Z,15.60
2018-07-05T00:16:55.555Z,15.60
2018-07-05T00:19:36.928Z,15.60
2018-07-05T00:22:19.399Z,15.60
2018-07-05T00:25:03.447Z,15.60
2018-07-05T00:27:47.647Z,15.50
2018-07-05T00:30:30.992Z,15.50
2018-07-05T00:33:12.407Z,15.50
2018-07-05T00:35:52.479Z,15.50
2018-07-05T00:38:32.695Z,15.40
2018-07-05T00:41:12.955Z,15.30
2018-07-05T00:43:53.967Z,15.20
2018-07-05T00:46:36.267Z,15.20
2018-07-05T00:49:19.755Z,15.20
2018-07-05T00:52:00.778Z,15.10
2018-07-05T00:54:42.259Z,15.10
2018-07-05T00:57:23.558Z,15.10
2018-07-05T01:00:03.747Z,15.00
2018-07-05T01:02:46.143Z,14.90
2018-07-05T01:05:30.019Z,14.90
2018-07-05T01:08:14.535Z,14.90
2018-07-05T01:10:55.831Z,14.90
2018-07-05T01:13:35.955Z,15.00
2018-07-05T01:16:16.235Z,15.00
2018-07-05T01:18:56.385Z,14.90
2018-07-05T01:21:36.602Z,14.90
2018-07-05T01:24:16.742Z,14.90
2018-07-05T01:26:57.029Z,14.90
2018-07-05T01:29:37.358Z,14.90
2018-07-05T01:32:17.675Z,14.80
2018-07-05T01:34:57.802Z,14.80
2018-07-05T01:37:39.102Z,14.70
2018-07-05T01:40:20.370Z,14.60
2018-07-05T01:43:00.654Z,14.50
2018-07-05T01:45:40.814Z,14.40
2018-07-05T01:48:21.967Z,14.40
2018-07-05T01:51:02.235Z,14.30
2018-07-05T01:53:43.659Z,14.40
2018-07-05T01:56:24.091Z,14.40
2018-07-05T01:59:04.278Z,14.50
2018-07-05T02:01:45.370Z,14.50
2018-07-05T02:04:25.568Z,14.50
2018-07-05T02:07:05.858Z,14.60
2018-07-05T02:09:46.227Z,14.60
2018-07-05T02:12:26.671Z,14.50
2018-07-05T02:15:06.955Z,14.40
2018-07-05T02:17:47.271Z,14.40
2018-07-05T02:20:29.639Z,14.30
2018-07-05T02:23:10.891Z,14.20
2018-07-05T02:25:50.936Z,14.10
2018-07-05T02:28:31.255Z,14.00
2018-07-05T02:31:12.584Z,13.90
2018-07-05T02:33:58.271Z,13.90
2018-07-05T02:36:39.499Z,13.90
2018-07-05T02:39:27.155Z,14.00
2018-07-05T02:42:08.359Z,14.20
2018-07-05T02:44:49.528Z,14.20
2018-07-05T02:47:30.207Z,14.10
2018-07-05T02:50:11.404Z,14.00
2018-07-05T02:52:52.647Z,13.90
2018-07-05T02:55:32.943Z,13.90
2018-07-05T02:58:13.203Z,13.80
2018-07-05T03:00:57.407Z,13.90
2018-07-05T03:03:37.591Z,13.90
2018-07-05T03:06:17.907Z,13.90
2018-07-05T03:08:58.143Z,13.90
2018-07-05T03:11:43.631Z,14.00
2018-07-05T03:17:03.995Z,14.20
2018-07-05T03:19:47.323Z,14.20
2018-07-05T03:22:27.571Z,14.30
2018-07-05T03:25:14.479Z,14.30
2018-07-05T03:27:55.835Z,14.30
2018-07-05T03:30:36.015Z,14.20
2018-07-05T03:33:16.275Z,14.10
2018-07-05T03:35:59.987Z,14.20
2018-07-05T03:38:41.674Z,14.20
2018-07-05T03:41:21.915Z,14.20
2018-07-05T03:46:38.359Z,14.10
2018-07-05T03:51:56.355Z,14.20
2018-07-05T03:54:36.567Z,14.20
2018-07-05T03:57:17.747Z,14.30
2018-07-05T03:59:58.062Z,14.40
2018-07-05T04:02:39.218Z,14.40
2018-07-05T04:05:19.917Z,14.50
2018-07-05T04:08:00.147Z,14.60
2018-07-05T04:10:40.925Z,14.60
2018-07-05T04:13:22.175Z,14.60
2018-07-05T04:16:03.511Z,14.70
2018-07-05T04:21:18.786Z,15.00
2018-07-05T04:23:59.941Z,15.10
2018-07-05T04:26:40.299Z,15.10
2018-07-05T04:29:20.419Z,15.20
2018-07-05T04:32:00.695Z,15.30
2018-07-05T04:34:40.866Z,15.40
2018-07-05T04:37:23.286Z,15.60
2018-07-05T04:40:03.431Z,15.80
2018-07-05T04:42:43.651Z,15.90
2018-07-05T04:45:28.300Z,16.10
2018-07-05T04:48:10.850Z,16.30
2018-07-05T04:50:52.882Z,16.40
2018-07-05T04:53:33.186Z,16.50
2018-07-05T04:56:14.427Z,16.60
2018-07-05T04:58:56.794Z,16.70
2018-07-05T05:01:37.837Z,16.80
2018-07-05T05:04:21.815Z,16.90
2018-07-05T05:07:02.035Z,17.10
2018-07-05T05:09:45.606Z,17.30
2018-07-05T05:12:28.886Z,17.50
2018-07-05T05:15:08.967Z,17.70
2018-07-05T05:17:49.118Z,18.00
2018-07-05T05:20:29.254Z,18.20
2018-07-05T05:23:10.446Z,18.40
2018-07-05T05:25:53.894Z,18.70
2018-07-05T05:28:36.270Z,19.00
2018-07-05T05:31:16.654Z,19.30
2018-07-05T05:34:00.722Z,19.50
2018-07-05T05:36:40.850Z,19.70
2018-07-05T05:39:21.534Z,20.00
2018-07-05T05:42:05.507Z,20.30
2018-07-05T05:44:45.831Z,20.60
2018-07-05T05:47:29.473Z,21.20
2018-07-05T05:50:09.586Z,21.70
2018-07-05T05:52:51.776Z,22.30
2018-07-05T05:55:33.213Z,23.00
2018-07-05T05:58:17.050Z,23.50
2018-07-05T06:01:01.875Z,23.70
2018-07-05T06:03:42.746Z,23.80
2018-07-05T06:06:27.988Z,23.90
2018-07-05T06:09:08.250Z,24.00
2018-07-05T06:11:48.386Z,24.10
2018-07-05T06:14:28.570Z,24.30
2018-07-05T06:17:12.966Z,24.40
2018-07-05T06:19:54.849Z,24.50
2018-07-05T06:22:38.575Z,24.60
2018-07-05T06:25:20.762Z,24.60
2018-07-05T06:28:01.146Z,24.70
2018-07-05T06:30:49.986Z,25.00
2018-07-05T06:33:30.201Z,25.20
2018-07-05T06:36:11.334Z,25.30
2018-07-05T06:38:51.478Z,25.60
2018-07-05T06:41:32.282Z,25.60
2018-07-05T06:44:17.674Z,25.80
2018-07-05T06:47:03.274Z,25.90
2018-07-05T06:49:44.399Z,26.10
2018-07-05T06:52:27.430Z,26.20
2018-07-05T06:55:07.686Z,26.30
2018-07-05T06:57:49.833Z,26.70
2018-07-05T07:00:33.106Z,26.90
2018-07-05T07:03:13.274Z,27.30
2018-07-05T07:05:53.474Z,27.70
2018-07-05T07:08:37.081Z,28.00
2018-07-05T07:11:21.682Z,28.20
2018-07-05T07:14:06.793Z,28.20
2018-07-05T07:16:46.866Z,28.40
2018-07-05T07:19:26.975Z,28.70
2018-07-05T07:22:09.154Z,28.80
2018-07-05T07:24:52.129Z,29.10
2018-07-05T07:27:32.958Z,29.10
2018-07-05T07:30:16.350Z,28.90
2018-07-05T07:32:56.502Z,28.80
2018-07-05T07:35:39.690Z,28.60
2018-07-05T07:38:23.111Z,28.70
2018-07-05T07:41:11.642Z,29.10
2018-07-05T07:43:39.402Z,29.50
2018-07-05T07:46:11.810Z,29.70
2018-07-05T07:48:46.546Z,29.90
2018-07-05T07:51:18.512Z,30.30
2018-07-05T07:54:07.802Z,30.70
2018-07-05T07:56:36.529Z,30.50
2018-07-05T07:59:05.610Z,30.50
2018-07-05T08:01:36.553Z,30.40
2018-07-05T08:04:04.310Z,30.50
2018-07-05T08:06:32.074Z,30.60
2018-07-05T08:09:05.038Z,31.00
2018-07-05T08:14:26.562Z,31.70
2018-07-05T08:16:54.334Z,31.60
2018-07-05T08:19:22.077Z,32.00
2018-07-05T08:21:55.746Z,32.00
2018-07-05T08:24:25.373Z,32.10
2018-07-05T08:26:59.498Z,32.40
2018-07-05T08:29:29.157Z,32.10
2018-07-05T08:31:57.821Z,32.50
2018-07-05T08:34:25.598Z,32.50
2018-07-05T08:39:26.046Z,33.00
2018-07-05T08:42:00.234Z,33.20
2018-07-05T08:44:28.030Z,33.40
2018-07-05T08:47:14.774Z,34.00
2018-07-05T08:49:42.554Z,34.00
2018-07-05T08:52:11.563Z,33.80
2018-07-05T08:54:56.375Z,33.80
2018-07-05T08:57:25.015Z,34.00
2018-07-05T08:59:58.494Z,34.50
2018-07-05T09:02:33.698Z,35.30
2018-07-05T09:05:05.382Z,35.70
2018-07-05T09:07:37.421Z,35.40
2018-07-05T09:10:15.587Z,34.70
2018-07-05T09:12:43.325Z,34.30
2018-07-05T09:15:12.985Z,34.50
2018-07-05T09:17:41.535Z,34.90
2018-07-05T09:20:13.822Z,35.20
2018-07-05T09:22:45.824Z,35.90
2018-07-05T09:25:13.545Z,37.00
2018-07-05T09:30:13.842Z,37.60
2018-07-05T09:32:56.627Z,38.20
2018-07-05T09:35:28.710Z,38.30
2018-07-05T09:37:58.390Z,37.90
2018-07-05T09:40:32.166Z,37.50
2018-07-05T09:43:00.885Z,37.00
2018-07-05T09:45:30.573Z,35.70
2018-07-05T09:47:59.226Z,34.20
2018-07-05T09:50:27.945Z,33.60
2018-07-05T09:52:56.637Z,33.10
2018-07-05T09:55:32.454Z,34.60
2018-07-05T09:58:10.480Z,36.60
2018-07-05T10:00:55.265Z,38.90
2018-07-05T10:03:42.655Z,39.10
2018-07-05T10:06:10.380Z,40.30
2018-07-05T10:11:35.098Z,37.90
2018-07-05T10:14:11.773Z,34.60
2018-07-05T10:16:52.547Z,33.30
2018-07-05T10:19:23.363Z,31.50
2018-07-05T10:21:56.166Z,31.10
2018-07-05T10:24:27.333Z,31.00
2018-07-05T10:27:05.464Z,31.70
2018-07-05T10:29:50.241Z,31.90
2018-07-05T10:32:30.505Z,31.90
2018-07-05T10:34:59.145Z,32.50
2018-07-05T10:37:33.233Z,34.80
2018-07-05T10:40:13.378Z,36.70
2018-07-05T10:42:59.361Z,38.20
2018-07-05T10:45:40.174Z,37.40
2018-07-05T10:48:20.153Z,36.00
2018-07-05T10:51:01.449Z,35.00
2018-07-05T10:53:41.514Z,34.80
2018-07-05T10:56:24.933Z,34.20
2018-07-05T10:59:09.801Z,34.50
2018-07-05T11:01:53.841Z,34.70
2018-07-05T11:04:35.889Z,34.40
2018-07-05T11:07:17.030Z,33.80
2018-07-05T11:09:58.433Z,34.30
2018-07-05T11:12:44.885Z,35.10
2018-07-05T11:15:25.146Z,35.40
2018-07-05T11:18:05.410Z,36.40
2018-07-05T11:20:51.023Z,37.10
2018-07-05T11:23:35.033Z,36.20
2018-07-05T11:26:15.173Z,35.70
2018-07-05T11:28:55.585Z,34.90
2018-07-05T11:31:35.989Z,33.90
2018-07-05T11:34:16.185Z,33.10
2018-07-05T11:36:59.521Z,32.60
2018-07-05T11:39:39.665Z,32.20
2018-07-05T11:42:19.719Z,31.50
2018-07-05T11:45:00.098Z,31.10
2018-07-05T11:47:40.144Z,30.90
2018-07-05T11:50:26.289Z,31.00
2018-07-05T11:55:45.046Z,31.10
2018-07-05T11:58:27.201Z,31.10
2018-07-05T12:01:16.861Z,30.50
2018-07-05T12:04:00.703Z,29.10
2018-07-05T12:09:18.605Z,27.80
2018-07-05T12:12:07.201Z,26.80
2018-07-05T12:14:47.819Z,26.60
2018-07-05T12:17:28.413Z,26.30
2018-07-05T12:20:10.757Z,25.90
2018-07-05T12:22:55.545Z,25.70
2018-07-05T12:25:41.365Z,25.50
2018-07-05T12:28:21.419Z,25.30
2018-07-05T12:31:01.706Z,25.20
2018-07-05T12:33:43.249Z,25.10
2018-07-05T12:36:25.434Z,24.90
2018-07-05T12:39:05.693Z,24.90
2018-07-05T12:41:48.901Z,24.90
2018-07-05T12:44:29.013Z,24.80
2018-07-05T12:47:13.897Z,24.60
2018-07-05T12:49:55.231Z,24.40
2018-07-05T12:52:36.249Z,24.10
2018-07-05T12:55:16.441Z,23.70
2018-07-05T12:57:56.693Z,23.40
2018-07-05T13:00:44.253Z,23.00
2018-07-05T13:03:28.644Z,22.60
2018-07-05T13:06:10.725Z,22.30
2018-07-05T13:08:54.949Z,22.10
2018-07-05T13:11:38.961Z,21.90
2018-07-05T13:14:29.033Z,21.60
2018-07-05T13:17:10.197Z,21.30
2018-07-05T13:19:51.197Z,21.00
2018-07-05T13:22:35.013Z,20.60
2018-07-05T13:25:18.929Z,20.20
2018-07-05T13:28:03.826Z,20.00
2018-07-05T13:30:44.286Z,19.90
2018-07-05T13:33:25.609Z,19.80
2018-07-05T13:36:06.881Z,19.70
2018-07-05T13:38:50.485Z,19.60
2018-07-05T13:41:30.756Z,19.30
2018-07-05T13:44:13.916Z,19.00
2018-07-05T13:46:54.261Z,18.70
2018-07-05T13:49:36.409Z,18.50
2018-07-05T13:52:18.449Z,18.30
2018-07-05T13:55:00.777Z,18.10
2018-07-05T13:57:46.883Z,18.00
2018-07-05T14:00:28.992Z,17.90
2018-07-05T14:03:15.237Z,17.90
2018-07-05T14:05:58.748Z,17.80
2018-07-05T14:08:43.921Z,17.70
2018-07-05T14:11:28.969Z,17.60
2018-07-05T14:14:13.185Z,17.50
2018-07-05T14:16:58.113Z,17.30
2018-07-05T14:19:38.129Z,17.10
2018-07-05T14:25:04.670Z,16.90
2018-07-05T14:27:46.281Z,16.80
2018-07-05T14:30:27.177Z,16.70
2018-07-05T14:33:07.281Z,16.70
2018-07-05T14:38:25.801Z,16.60
2018-07-05T14:41:12.652Z,16.60
2018-07-05T14:46:51.477Z,16.50
2018-07-05T14:49:37.725Z,16.50
2018-07-05T14:52:24.517Z,16.40
2018-07-05T14:55:16.790Z,16.40
2018-07-05T14:57:57.901Z,16.40
2018-07-05T15:00:41.489Z,16.30
2018-07-05T15:03:21.545Z,16.20
2018-07-05T15:06:02.713Z,16.20
2018-07-05T15:08:43.905Z,16.20
2018-07-05T15:11:29.341Z,16.20
2018-07-05T15:14:09.445Z,16.20
2018-07-05T15:16:51.629Z,16.20
2018-07-05T15:19:32.729Z,16.20
2018-07-05T15:22:18.688Z,16.20
2018-07-05T15:25:05.977Z,16.20
2018-07-05T15:27:47.571Z,16.10
2018-07-05T15:33:15.181Z,16.20
2018-07-05T15:36:06.801Z,16.20
2018-07-05T15:38:48.012Z,16.20
2018-07-05T15:41:28.233Z,16.20
2018-07-05T15:44:14.393Z,16.30
2018-07-05T15:46:54.584Z,16.30
2018-07-05T15:49:39.700Z,16.30
2018-07-05T15:52:25.545Z,16.30
2018-07-05T15:55:07.772Z,16.30
2018-07-05T15:57:55.648Z,16.40
2018-07-05T16:00:36.249Z,16.30
2018-07-05T16:03:19.013Z,16.30
2018-07-05T16:06:06.089Z,16.30
2018-07-05T16:08:49.710Z,16.30
2018-07-05T16:11:32.781Z,16.30
2018-07-05T16:14:14.552Z,16.40
2018-07-05T16:16:59.053Z,16.40
2018-07-05T16:19:39.829Z,16.50
2018-07-05T16:22:25.572Z,16.50
2018-07-05T16:27:58.401Z,16.60
2018-07-05T16:30:43.933Z,16.70
2018-07-05T16:33:24.048Z,16.70
2018-07-05T16:36:05.253Z,16.70
2018-07-05T16:38:46.856Z,16.70
2018-07-05T16:41:30.053Z,16.80
2018-07-05T16:44:10.117Z,16.80
2018-07-05T16:46:51.288Z,16.80
2018-07-05T16:49:31.503Z,16.90
2018-07-05T16:52:11.648Z,17.00
2018-07-05T16:54:52.899Z,17.00
2018-07-05T16:57:33.184Z,17.10
2018-07-05T17:00:14.480Z,17.20
2018-07-05T17:02:54.828Z,17.20
2018-07-05T17:05:36.009Z,17.30
2018-07-05T17:08:17.336Z,17.30
2018-07-05T17:10:57.816Z,17.20
2018-07-05T17:13:37.903Z,17.20
2018-07-05T17:16:20.091Z,17.10
2018-07-05T17:19:00.214Z,17.10
2018-07-05T17:21:41.424Z,17.20
2018-07-05T17:24:21.604Z,17.40
2018-07-05T17:27:04.928Z,17.50
2018-07-05T17:29:45.148Z,17.60
2018-07-05T17:32:29.473Z,17.60
2018-07-05T17:35:10.680Z,17.60
2018-07-05T17:37:50.840Z,17.60
2018-07-05T17:43:30.260Z,17.70
2018-07-05T17:46:11.574Z,17.80
2018-07-05T17:48:51.940Z,17.80
2018-07-05T17:51:36.007Z,17.80
2018-07-05T17:54:21.873Z,17.80
2018-07-05T17:57:07.740Z,17.80
2018-07-05T17:59:47.904Z,17.70
2018-07-05T18:02:35.339Z,17.70
2018-07-05T18:05:15.699Z,17.70
2018-07-05T18:07:57.716Z,17.70
2018-07-05T18:10:40.996Z,17.80
2018-07-05T18:13:22.205Z,17.70
2018-07-05T18:16:06.183Z,17.70
2018-07-05T18:18:47.291Z,17.70
2018-07-05T18:21:27.795Z,17.60
2018-07-05T18:24:11.091Z,17.60
2018-07-05T18:26:51.736Z,17.60
2018-07-05T18:29:32.863Z,17.60
2018-07-05T18:32:14.112Z,17.50
2018-07-05T18:34:57.404Z,17.50
2018-07-05T18:37:37.623Z,17.40
2018-07-05T18:40:18.684Z,17.40
2018-07-05T18:43:00.925Z,17.30
2018-07-05T18:45:42.040Z,17.30
2018-07-05T18:48:24.359Z,17.20
2018-07-05T18:51:11.396Z,17.20
2018-07-05T18:53:52.710Z,17.20
2018-07-05T18:56:32.909Z,17.10
2018-07-05T18:59:13.848Z,17.10
2018-07-05T19:04:41.982Z,17.00
2018-07-05T19:07:23.208Z,16.90
2018-07-05T19:10:04.356Z,16.90
2018-07-05T19:12:46.002Z,16.90
2018-07-05T19:15:26.232Z,16.90
2018-07-05T19:18:09.727Z,16.80
2018-07-05T19:20:51.867Z,16.90
2018-07-05T19:23:32.884Z,16.90
2018-07-05T19:26:14.123Z,16.90
2018-07-05T19:28:59.220Z,16.90
2018-07-05T19:31:43.273Z,16.90
2018-07-05T19:34:23.644Z,16.90
2018-07-05T19:37:04.650Z,16.90
2018-07-05T19:39:47.004Z,16.90
2018-07-05T19:42:27.332Z,16.80
2018-07-05T19:45:12.688Z,16.70
2018-07-05T19:47:54.168Z,16.70
2018-07-05T19:50:34.480Z,16.70
2018-07-05T19:53:14.628Z,16.70
2018-07-05T19:55:56.884Z,16.80
2018-07-05T19:58:40.244Z,16.80
2018-07-05T20:01:22.332Z,16.80
2018-07-05T20:04:03.662Z,16.80
2018-07-05T20:06:45.156Z,16.80
2018-07-05T20:09:30.999Z,16.80
2018-07-05T20:12:12.332Z,16.80
2018-07-05T20:14:53.740Z,16.80
2018-07-05T20:17:34.143Z,16.80
2018-07-05T20:20:19.140Z,16.80
2018-07-05T20:23:05.195Z,16.80
2018-07-05T20:25:50.961Z,16.80
2018-07-05T20:28:31.148Z,16.80
2018-07-05T20:33:45.427Z,16.90
2018-07-05T20:36:25.627Z,16.90
2018-07-05T20:39:06.812Z,17.00
2018-07-05T20:41:48.072Z,17.00
2018-07-05T20:44:30.456Z,17.10
2018-07-05T20:47:16.722Z,17.10
2018-07-05T20:49:58.907Z,17.10
2018-07-05T20:52:42.895Z,17.10
2018-07-05T20:55:28.488Z,17.10
2018-07-05T20:58:12.536Z,17.10
2018-07-05T21:00:56.382Z,17.10
2018-07-05T21:03:38.711Z,17.10
2018-07-05T21:06:22.141Z,17.00
2018-07-05T21:09:04.540Z,17.10
2018-07-05T21:11:44.715Z,17.10
2018-07-05T21:14:24.955Z,17.20
2018-07-05T21:17:05.895Z,17.20
2018-07-05T21:19:48.279Z,17.30
2018-07-05T21:22:33.175Z,17.30
2018-07-05T21:25:13.455Z,17.30
2018-07-05T21:27:58.031Z,17.30
2018-07-05T21:30:40.447Z,17.30
2018-07-05T21:33:22.075Z,17.20
2018-07-05T21:36:02.439Z,17.20
2018-07-05T21:38:44.662Z,17.20
2018-07-05T21:41:28.299Z,17.20
2018-07-05T21:44:08.633Z,17.20
2018-07-05T21:46:50.231Z,17.20
2018-07-05T21:49:34.027Z,17.20
2018-07-05T21:54:50.387Z,17.10
2018-07-05T21:57:31.500Z,17.00
2018-07-05T22:00:16.408Z,17.00
2018-07-05T22:02:56.533Z,16.90
2018-07-05T22:05:38.779Z,16.90
2018-07-05T22:08:18.992Z,16.90
2018-07-05T22:13:36.692Z,16.80
2018-07-05T22:16:18.983Z,16.80
2018-07-05T22:19:05.789Z,16.80
2018-07-05T22:22:54.969Z,16.70
2018-07-05T22:25:41.729Z,16.70
2018-07-05T22:28:27.426Z,16.70
2018-07-05T22:31:13.965Z,16.70
2018-07-05T22:33:56.323Z,16.70
2018-07-05T22:39:10.750Z,16.60
2018-07-05T22:41:52.967Z,16.60
2018-07-05T22:44:36.919Z,16.60
2018-07-05T22:47:20.843Z,16.60
2018-07-05T22:50:02.935Z,16.60
2018-07-05T22:52:44.123Z,16.70
2018-07-05T22:55:28.171Z,16.70
2018-07-05T22:58:14.023Z,16.70
2018-07-05T23:00:54.292Z,16.70
2018-07-05T23:03:35.413Z,16.70
2018-07-05T23:06:19.013Z,16.70
2018-07-05T23:09:00.296Z,16.70
2018-07-05T23:11:43.651Z,16.70
2018-07-05T23:14:26.235Z,16.70
2018-07-05T23:17:08.539Z,16.70
2018-07-05T23:19:48.651Z,16.70
2018-07-05T23:22:30.691Z,16.70
2018-07-05T23:25:10.871Z,16.70
2018-07-05T23:27:52.251Z,16.70
2018-07-05T23:30:32.355Z,16.70
2018-07-05T23:33:16.747Z,16.70
2018-07-05T23:36:01.684Z,16.70
2018-07-05T23:38:41.975Z,16.70
2018-07-05T23:41:27.931Z,16.70
2018-07-05T23:44:12.743Z,16.70
2018-07-05T23:46:55.126Z,16.70
2018-07-05T23:49:38.863Z,16.70
2018-07-05T23:52:21.035Z,16.70
2018-07-05T23:55:06.363Z,16.80
2018-07-05T23:57:51.226Z,16.80
